Time;durP1;ratioP1;P1;durP2;ratioP2;P2;SDS_P1;SDS_P2;PMS_P1;PMS_P2;Temp;Humidity;BMP_temperature;BMP_pressure;BME280_temperature;BME280_humidity;BME280_pressure;Samples;Min_cycle;Max_cycle;Signal;HPM_P1;HPM_P2
2021/05/02 00:00:30;;;;;;;24.17;18.92;;;18.50;59.20;;;;;;5132775;27;20019;-66
2021/05/02 00:02:58;;;;;;;23.35;18.23;;;18.40;60.00;;;;;;5132769;27;20039;-65
2021/05/02 00:05:26;;;;;;;27.02;20.38;;;18.30;60.10;;;;;;5132766;27;20031;-65
2021/05/02 00:07:52;;;;;;;26.52;20.88;;;18.30;60.50;;;;;;5119332;28;20042;-66
2021/05/02 00:10:22;;;;;;;32.28;22.45;;;18.20;60.70;;;;;;5131325;28;20056;-66
2021/05/02 00:12:49;;;;;;;31.83;23.83;;;18.10;61.10;;;;;;5132634;27;20023;-66
2021/05/02 00:15:18;;;;;;;30.35;22.40;;;18.00;61.20;;;;;;5132681;27;20019;-66
2021/05/02 00:17:46;;;;;;;39.22;27.48;;;17.90;61.70;;;;;;5131344;28;20124;-67
2021/05/02 00:20:17;;;;;;;33.70;25.30;;;17.80;62.10;;;;;;5132635;27;20024;-68
2021/05/02 00:22:45;;;;;;;33.95;25.63;;;17.70;62.60;;;;;;5115718;28;20102;-69
2021/05/02 00:25:14;;;;;;;34.15;26.15;;;17.70;63.20;;;;;;5115737;28;20023;-71
2021/05/02 00:27:41;;;;;;;32.78;25.95;;;17.60;63.70;;;;;;5115631;28;20027;-75
2021/05/02 00:30:08;;;;;;;34.17;26.77;;;17.60;64.40;;;;;;5115899;28;20506;-81
2021/05/02 00:32:35;;;;;;;40.58;30.27;;;17.50;65.00;;;;;;5100308;28;20023;-80
2021/05/02 00:35:01;;;;;;;41.90;30.80;;;17.40;65.30;;;;;;5134652;27;20019;-70
2021/05/02 00:37:28;;;;;;;34.35;27.83;;;17.30;65.70;;;;;;5135914;27;20590;-66
2021/05/02 00:39:55;;;;;;;36.67;26.90;;;17.30;66.10;;;;;;5135755;27;20106;-68
2021/05/02 00:42:24;;;;;;;41.47;29.55;;;17.20;66.40;;;;;;5135687;27;20018;-68
2021/05/02 00:44:57;;;;;;;35.75;27.40;;;17.20;66.90;;;;;;5135775;27;20091;-67
2021/05/02 00:47:47;;;;;;;39.38;28.58;;;17.20;67.80;;;;;;5135787;27;20027;-67
2021/05/02 00:50:18;;;;;;;39.28;28.30;;;17.10;66.80;;;;;;5135647;27;20024;-66
2021/05/02 00:52:46;;;;;;;34.20;26.63;;;17.10;67.20;;;;;;5135494;27;20046;-66
2021/05/02 00:55:15;;;;;;;36.83;28.77;;;17.00;67.40;;;;;;5135447;27;20072;-67
2021/05/02 00:58:09;;;;;;;38.92;26.77;;;17.00;67.70;;;;;;5135409;27;20027;-67
2021/05/02 01:00:39;;;;;;;33.63;23.50;;;16.90;67.50;;;;;;5134012;27;20043;-66
2021/05/02 01:03:07;;;;;;;28.50;22.88;;;16.90;68.20;;;;;;5135158;27;20027;-66
2021/05/02 01:05:34;;;;;;;26.25;20.73;;;16.90;68.80;;;;;;5135385;27;20115;-66
2021/05/02 01:08:02;;;;;;;35.67;25.52;;;16.90;69.20;;;;;;5135239;27;20110;-67
2021/05/02 01:10:29;;;;;;;41.60;26.33;;;16.80;69.60;;;;;;5133962;27;20035;-67
2021/05/02 01:12:57;;;;;;;31.67;24.00;;;16.80;70.00;;;;;;5133926;27;20028;-67
2021/05/02 01:15:31;;;;;;;27.70;20.65;;;16.80;70.80;;;;;;5135234;27;20357;-67
2021/05/02 01:18:06;;;;;;;28.08;21.63;;;16.70;71.20;;;;;;5133816;27;20038;-67
2021/05/02 01:20:38;;;;;;;25.85;19.88;;;16.70;71.50;;;;;;5134964;27;20388;-67
2021/05/02 01:23:09;;;;;;;15.25;12.52;;;16.50;72.00;;;;;;5120108;27;20047;-67
2021/05/02 01:25:36;;;;;;;14.35;11.02;;;16.50;72.00;;;;;;5114436;28;20495;-68
2021/05/02 01:28:03;;;;;;;18.38;11.75;;;16.40;72.40;;;;;;5114262;28;20451;-68
2021/05/02 01:30:29;;;;;;;10.82;8.43;;;16.30;73.10;;;;;;5114359;28;20095;-67
2021/05/02 01:32:55;;;;;;;8.93;7.22;;;16.30;73.00;;;;;;5114458;27;20108;-68
2021/05/02 01:35:21;;;;;;;7.72;6.70;;;16.20;73.00;;;;;;5134790;27;20030;-68
2021/05/02 01:37:49;;;;;;;9.52;6.35;;;16.10;73.20;;;;;;5134481;27;20054;-68
2021/05/02 01:40:16;;;;;;;6.25;4.78;;;16.10;73.60;;;;;;5114276;28;20514;-68
2021/05/02 01:42:42;;;;;;;9.68;4.60;;;16.00;73.40;;;;;;5114129;28;20038;-68
2021/05/02 01:45:09;;;;;;;4.93;3.88;;;15.90;73.20;;;;;;5114089;28;20019;-68
2021/05/02 01:47:42;;;;;;;4.45;3.72;;;15.90;73.40;;;;;;5115874;27;20027;-68
2021/05/02 01:50:10;;;;;;;3.28;2.70;;;15.90;73.60;;;;;;5133926;27;20020;-68
2021/05/02 01:52:43;;;;;;;4.70;3.72;;;15.80;73.90;;;;;;5134031;27;20095;-68
2021/05/02 01:55:10;;;;;;;6.22;3.97;;;15.80;74.00;;;;;;5134276;27;20464;-68
2021/05/02 01:57:36;;;;;;;4.05;2.00;;;15.70;74.00;;;;;;5133652;27;20027;-68
2021/05/02 02:00:11;;;;;;;2.10;1.60;;;15.70;74.00;;;;;;5134338;27;20063;-68
2021/05/02 02:02:38;;;;;;;3.45;1.25;;;15.60;73.80;;;;;;5134304;27;20027;-67
2021/05/02 02:05:05;;;;;;;5.35;3.17;;;15.50;73.60;;;;;;5128745;27;20035;-67
2021/05/02 02:07:32;;;;;;;4.35;2.80;;;15.40;73.70;;;;;;5113565;28;20110;-68
2021/05/02 02:09:58;;;;;;;5.60;1.10;;;15.40;74.40;;;;;;5113548;28;20021;-68
2021/05/02 02:12:24;;;;;;;5.50;3.33;;;15.30;74.40;;;;;;5113539;28;20019;-68
2021/05/02 02:14:51;;;;;;;3.15;1.48;;;15.30;74.40;;;;;;5113481;28;20499;-68
2021/05/02 02:17:19;;;;;;;4.18;2.67;;;15.20;74.40;;;;;;5113978;27;20027;-68
2021/05/02 02:19:46;;;;;;;4.20;2.95;;;15.10;74.20;;;;;;5133841;27;20023;-68
2021/05/02 02:22:13;;;;;;;1.00;0.70;;;15.10;74.30;;;;;;5133849;27;20054;-68
2021/05/02 02:24:56;;;;;;;4.18;2.08;;;15.00;74.50;;;;;;5133732;27;20027;-68
2021/05/02 02:27:28;;;;;;;8.95;2.08;;;14.90;73.80;;;;;;5133797;27;20392;-67
2021/05/02 02:29:58;;;;;;;3.25;1.98;;;14.80;73.80;;;;;;5133801;27;20049;-68
2021/05/02 02:32:24;;;;;;;1.80;0.88;;;14.70;73.80;;;;;;5133721;27;20025;-68
2021/05/02 02:34:53;;;;;;;1.60;1.02;;;14.60;73.90;;;;;;5133582;27;20031;-67
2021/05/02 02:37:21;;;;;;;4.22;2.40;;;14.50;74.10;;;;;;5133799;27;20029;-68
2021/05/02 02:39:50;;;;;;;2.97;2.03;;;14.50;74.40;;;;;;5134404;27;20019;-68
2021/05/02 02:42:18;;;;;;;1.52;0.75;;;14.40;74.60;;;;;;5134439;27;20029;-68
2021/05/02 02:44:49;;;;;;;7.10;4.82;;;14.40;74.50;;;;;;5133679;27;20046;-68
2021/05/02 02:47:21;;;;;;;2.40;1.33;;;14.30;74.60;;;;;;5134331;27;20027;-68
2021/05/02 02:49:56;;;;;;;6.38;3.42;;;14.30;74.60;;;;;;5134437;27;20384;-67
2021/05/02 02:52:25;;;;;;;3.72;1.83;;;14.20;75.20;;;;;;5132944;27;20039;-67
2021/05/02 02:55:13;;;;;;;4.35;1.05;;;14.10;74.10;;;;;;5134237;27;20384;-67
2021/05/02 02:58:01;;;;;;;1.45;0.70;;;14.00;74.00;;;;;;5134591;27;20011;-67
2021/05/02 03:00:32;;;;;;;0.90;0.73;;;14.00;74.20;;;;;;5134252;27;20020;-67
2021/05/02 03:03:13;;;;;;;2.22;1.13;;;13.90;74.20;;;;;;5132575;27;20055;-67
2021/05/02 03:05:40;;;;;;;6.43;3.38;;;13.90;74.70;;;;;;5124031;27;20035;-67
2021/05/02 03:08:10;;;;;;;0.95;0.60;;;13.80;74.60;;;;;;5113565;28;20024;-67
2021/05/02 03:10:40;;;;;;;4.15;2.58;;;13.70;75.00;;;;;;5113617;28;20066;-67
2021/05/02 03:13:06;;;;;;;3.38;2.25;;;13.70;75.00;;;;;;5131478;27;20057;-68
2021/05/02 03:15:32;;;;;;;12.88;5.30;;;13.60;75.00;;;;;;5134141;27;20051;-67
2021/05/02 03:18:16;;;;;;;6.10;2.25;;;13.60;75.20;;;;;;5133964;27;20042;-67
2021/05/02 03:20:45;;;;;;;13.38;5.10;;;13.50;75.20;;;;;;5134090;28;20031;-67
2021/05/02 03:23:43;;;;;;;4.40;2.17;;;13.60;75.80;;;;;;5133995;27;20034;-67
2021/05/02 03:26:11;;;;;;;1.35;1.02;;;13.50;75.00;;;;;;5126031;27;20110;-67
2021/05/02 03:28:54;;;;;;;0.50;0.50;;;13.50;75.50;;;;;;5133889;27;20049;-67
2021/05/02 03:31:27;;;;;;;5.45;2.95;;;13.40;74.80;;;;;;5133958;27;20051;-67
2021/05/02 03:33:56;;;;;;;2.70;1.42;;;13.30;75.10;;;;;;5133534;27;20113;-67
2021/05/02 03:36:44;;;;;;;6.65;4.22;;;13.30;75.60;;;;;;5133860;27;20015;-67
2021/05/02 03:39:11;;;;;;;1.05;0.70;;;13.30;75.30;;;;;;5133843;27;20495;-67
2021/05/02 03:41:36;;;;;;;1.35;1.02;;;13.30;75.70;;;;;;5128516;27;20351;-67
2021/05/02 03:44:04;;;;;;;1.63;1.00;;;13.30;75.90;;;;;;5113278;28;20513;-67
2021/05/02 03:46:30;;;;;;;6.22;3.30;;;13.30;75.60;;;;;;5113421;28;20012;-67
2021/05/02 03:49:01;;;;;;;3.83;1.83;;;13.20;75.50;;;;;;5119363;28;20024;-67
2021/05/02 03:51:29;;;;;;;5.18;3.22;;;13.10;75.40;;;;;;5131223;28;20042;-67
2021/05/02 03:53:56;;;;;;;1.10;0.80;;;13.10;75.40;;;;;;5132990;27;20026;-66
2021/05/02 03:56:38;;;;;;;2.25;1.27;;;13.10;75.70;;;;;;5137149;27;20162;-66
2021/05/02 03:59:13;;;;;;;4.82;1.23;;;13.00;75.50;;;;;;5137478;27;20042;-67
2021/05/02 04:01:43;;;;;;;4.10;2.55;;;13.00;75.10;;;;;;5137483;27;20019;-67
2021/05/02 04:04:13;;;;;;;4.45;1.52;;;13.00;74.70;;;;;;5137259;27;20031;-67
2021/05/02 04:06:40;;;;;;;3.85;2.25;;;12.90;75.50;;;;;;5137332;27;20376;-67
2021/05/02 04:09:07;;;;;;;1.00;0.77;;;12.90;75.10;;;;;;5137440;27;20161;-67
2021/05/02 04:11:33;;;;;;;1.23;0.90;;;12.90;74.80;;;;;;5137476;27;20042;-67
2021/05/02 04:14:07;;;;;;;5.35;3.28;;;12.80;74.80;;;;;;5137389;27;20019;-67
2021/05/02 04:16:33;;;;;;;1.42;0.70;;;12.80;74.40;;;;;;5119071;27;20112;-67
2021/05/02 04:19:00;;;;;;;2.38;1.33;;;12.80;74.60;;;;;;5116748;28;20030;-66
2021/05/02 04:21:26;;;;;;;3.92;2.10;;;12.70;74.30;;;;;;5116619;28;20146;-67
2021/05/02 04:23:52;;;;;;;1.05;0.88;;;12.70;74.30;;;;;;5116669;28;20043;-66
2021/05/02 04:26:18;;;;;;;3.08;0.73;;;12.60;74.30;;;;;;5116634;28;20051;-66
2021/05/02 04:28:44;;;;;;;5.43;1.65;;;12.60;74.50;;;;;;5116479;28;20036;-66
2021/05/02 04:31:10;;;;;;;1.55;1.10;;;12.60;74.20;;;;;;5116547;28;20081;-66
2021/05/02 04:33:37;;;;;;;2.53;1.10;;;12.50;73.60;;;;;;5123749;27;20087;-66
2021/05/02 04:36:03;;;;;;;0.82;0.73;;;12.50;74.20;;;;;;5135721;27;20106;-66
2021/05/02 04:38:29;;;;;;;2.05;1.20;;;12.40;74.10;;;;;;5136879;27;20019;-66
2021/05/02 04:40:55;;;;;;;2.85;1.85;;;12.40;74.00;;;;;;5136899;27;20022;-66
2021/05/02 04:43:21;;;;;;;4.28;2.58;;;12.40;74.70;;;;;;5116595;27;20027;-66
2021/05/02 04:45:47;;;;;;;1.02;0.90;;;12.40;74.50;;;;;;5123019;27;20035;-66
2021/05/02 04:48:13;;;;;;;1.35;1.10;;;12.40;74.50;;;;;;5118545;27;20023;-66
2021/05/02 04:50:39;;;;;;;4.70;2.47;;;12.40;74.00;;;;;;5116405;27;20125;-68
2021/05/02 04:53:05;;;;;;;3.15;1.50;;;12.40;74.20;;;;;;5115900;28;20043;-66
2021/05/02 04:55:31;;;;;;;1.77;1.25;;;12.40;74.20;;;;;;5116028;28;20419;-66
2021/05/02 04:57:58;;;;;;;1.00;0.80;;;12.40;74.30;;;;;;5116002;28;20031;-66
2021/05/02 05:00:24;;;;;;;1.50;0.90;;;12.40;73.70;;;;;;5115963;28;20026;-66
2021/05/02 05:02:55;;;;;;;1.50;1.02;;;12.30;73.10;;;;;;5115011;27;20358;-66
2021/05/02 05:05:21;;;;;;;1.50;1.00;;;12.30;73.00;;;;;;5136216;27;20061;-66
2021/05/02 05:07:47;;;;;;;1.98;1.48;;;12.30;73.60;;;;;;5134067;27;20050;-67
2021/05/02 05:10:13;;;;;;;2.88;1.90;;;12.30;73.80;;;;;;5120729;27;20553;-66
2021/05/02 05:12:42;;;;;;;2.28;1.55;;;12.30;73.60;;;;;;5115676;28;20023;-66
2021/05/02 05:15:09;;;;;;;4.90;2.28;;;12.30;73.70;;;;;;5133703;27;20541;-66
2021/05/02 05:17:36;;;;;;;4.05;2.38;;;12.30;73.50;;;;;;5135334;27;20499;-66
2021/05/02 05:20:05;;;;;;;2.67;1.88;;;12.30;73.30;;;;;;5129407;27;20023;-66
2021/05/02 05:22:31;;;;;;;1.63;1.20;;;12.30;73.30;;;;;;5135894;27;20057;-66
2021/05/02 05:24:58;;;;;;;2.17;1.52;;;12.30;73.10;;;;;;5132417;27;20050;-66
2021/05/02 05:27:24;;;;;;;1.67;1.58;;;12.30;72.50;;;;;;5135558;27;20020;-66
2021/05/02 05:29:50;;;;;;;4.50;3.00;;;12.30;72.60;;;;;;5135909;27;20019;-66
2021/05/02 05:32:16;;;;;;;3.28;2.42;;;12.30;73.30;;;;;;5135812;27;20030;-66
2021/05/02 05:34:42;;;;;;;2.97;2.10;;;12.40;73.60;;;;;;5135746;27;20034;-66
2021/05/02 05:37:08;;;;;;;3.67;2.13;;;12.40;73.50;;;;;;5135782;27;20094;-66
2021/05/02 05:39:34;;;;;;;2.95;2.20;;;12.50;73.70;;;;;;5135728;27;20027;-66
2021/05/02 05:42:00;;;;;;;3.03;2.38;;;12.60;73.20;;;;;;5126766;27;20023;-66
2021/05/02 05:44:27;;;;;;;5.15;2.80;;;12.70;72.90;;;;;;5114939;27;20085;-66
2021/05/02 05:46:53;;;;;;;2.65;2.28;;;12.70;72.70;;;;;;5114949;28;20051;-66
2021/05/02 05:49:19;;;;;;;2.83;2.10;;;12.80;71.20;;;;;;5118454;27;20023;-66
2021/05/02 05:51:51;;;;;;;3.25;2.55;;;12.80;70.90;;;;;;5134555;27;20043;-66
2021/05/02 05:54:17;;;;;;;2.53;1.80;;;12.90;70.70;;;;;;5134626;27;20141;-66
2021/05/02 05:56:43;;;;;;;2.72;1.67;;;12.90;68.90;;;;;;5134647;27;20102;-66
2021/05/02 05:59:09;;;;;;;6.82;2.10;;;12.90;68.10;;;;;;5134908;27;20051;-67
2021/05/02 06:01:34;;;;;;;2.08;1.70;;;12.90;67.60;;;;;;5135345;27;20023;-67
2021/05/02 06:04:00;;;;;;;2.63;1.80;;;12.90;67.20;;;;;;5135182;27;20380;-66
2021/05/02 06:06:32;;;;;;;3.15;1.90;;;12.90;66.80;;;;;;5127328;27;20491;-66
2021/05/02 06:08:58;;;;;;;1.90;1.60;;;12.90;67.20;;;;;;5123612;27;20532;-66
2021/05/02 06:11:24;;;;;;;2.10;1.88;;;12.90;67.30;;;;;;5134974;27;20019;-67
2021/05/02 06:13:51;;;;;;;3.28;1.88;;;12.90;67.30;;;;;;5134988;27;20027;-66
2021/05/02 06:16:17;;;;;;;1.90;1.52;;;12.90;67.20;;;;;;5134996;27;20086;-66
2021/05/02 06:18:43;;;;;;;1.33;1.20;;;12.80;66.50;;;;;;5134819;27;20106;-67
2021/05/02 06:21:08;;;;;;;1.52;1.10;;;12.80;66.20;;;;;;5134936;27;20027;-67
2021/05/02 06:23:34;;;;;;;1.92;0.98;;;12.80;66.80;;;;;;5133531;27;20038;-66
2021/05/02 06:26:00;;;;;;;1.17;1.00;;;12.80;67.20;;;;;;5134481;27;20472;-67
2021/05/02 06:28:26;;;;;;;1.10;1.00;;;12.80;67.20;;;;;;5134650;27;20031;-66
2021/05/02 06:30:51;;;;;;;2.13;0.85;;;12.80;67.30;;;;;;5133493;27;20054;-67
2021/05/02 06:33:17;;;;;;;2.28;1.15;;;12.80;66.90;;;;;;5132476;27;20448;-66
2021/05/02 06:35:43;;;;;;;1.27;1.00;;;12.70;66.60;;;;;;5132828;27;20389;-66
2021/05/02 06:38:09;;;;;;;0.80;0.70;;;12.80;67.00;;;;;;5133338;27;20092;-67
2021/05/02 06:40:34;;;;;;;0.68;0.60;;;12.70;67.00;;;;;;5134214;27;20023;-66
2021/05/02 06:43:01;;;;;;;0.50;0.50;;;12.70;66.40;;;;;;5134240;27;20023;-67
2021/05/02 06:45:26;;;;;;;0.60;0.50;;;12.60;66.50;;;;;;5134226;27;20031;-67
2021/05/02 06:47:52;;;;;;;1.75;0.88;;;12.60;66.60;;;;;;5134227;27;20471;-66
2021/05/02 06:50:18;;;;;;;1.63;0.60;;;12.60;67.00;;;;;;5134311;27;20460;-66
2021/05/02 06:52:44;;;;;;;0.70;0.40;;;12.60;67.40;;;;;;5134128;27;20041;-66
2021/05/02 06:55:10;;;;;;;1.52;0.70;;;12.50;67.50;;;;;;5134220;27;20019;-67
2021/05/02 06:57:36;;;;;;;0.95;0.70;;;12.50;67.40;;;;;;5133770;27;20027;-67
2021/05/02 07:00:02;;;;;;;0.95;0.50;;;12.50;67.00;;;;;;5133980;27;20384;-67
2021/05/02 07:02:28;;;;;;;0.52;0.52;;;12.50;66.70;;;;;;5132650;27;20430;-66
2021/05/02 07:04:53;;;;;;;1.35;0.90;;;12.40;66.80;;;;;;5133919;27;20080;-66
2021/05/02 07:07:19;;;;;;;1.10;0.77;;;12.40;67.10;;;;;;5133791;27;20116;-66
2021/05/02 07:09:45;;;;;;;1.20;0.93;;;12.40;67.40;;;;;;5133916;27;20384;-67
2021/05/02 07:12:11;;;;;;;0.95;0.60;;;12.50;67.80;;;;;;5119053;27;20023;-67
2021/05/02 07:14:37;;;;;;;1.33;0.70;;;12.50;67.00;;;;;;5113695;28;20406;-67
2021/05/02 07:17:02;;;;;;;5.35;0.60;;;12.50;66.90;;;;;;5113535;28;20031;-67
2021/05/02 07:19:28;;;;;;;1.00;0.68;;;12.50;66.70;;;;;;5131122;28;20042;-68
2021/05/02 07:22:01;;;;;;;4.35;0.73;;;12.50;66.80;;;;;;5133849;27;20036;-67
2021/05/02 07:24:27;;;;;;;0.52;0.47;;;12.60;67.20;;;;;;5134058;27;20503;-67
2021/05/02 07:26:52;;;;;;;0.80;0.60;;;12.60;66.90;;;;;;5133341;27;20035;-67
2021/05/02 07:29:18;;;;;;;1.17;0.60;;;12.60;65.80;;;;;;5133897;27;20026;-66
2021/05/02 07:31:44;;;;;;;0.40;0.28;;;12.60;65.60;;;;;;5137963;27;20034;-68
2021/05/02 07:34:10;;;;;;;0.43;0.30;;;12.60;66.30;;;;;;5137853;27;20049;-67
2021/05/02 07:36:35;;;;;;;0.50;0.40;;;12.60;66.50;;;;;;5137827;27;20023;-67
2021/05/02 07:39:03;;;;;;;1.05;0.50;;;12.70;67.20;;;;;;5136884;27;20038;-67
2021/05/02 07:41:29;;;;;;;0.90;0.60;;;12.80;67.10;;;;;;5137764;27;20098;-67
2021/05/02 07:43:54;;;;;;;1.48;0.45;;;12.80;66.90;;;;;;5137708;27;20047;-68
2021/05/02 07:46:20;;;;;;;1.02;0.65;;;12.90;67.50;;;;;;5137746;27;20020;-67
2021/05/02 07:48:46;;;;;;;1.10;0.45;;;12.90;65.00;;;;;;5137737;27;20092;-67
2021/05/02 07:51:12;;;;;;;0.60;0.45;;;12.90;65.70;;;;;;5134510;27;20084;-67
2021/05/02 07:53:38;;;;;;;0.52;0.52;;;13.00;66.00;;;;;;5128030;27;20050;-67
2021/05/02 07:56:04;;;;;;;0.82;0.50;;;13.10;66.40;;;;;;5121700;27;20508;-67
2021/05/02 07:58:30;;;;;;;1.13;0.50;;;13.20;66.30;;;;;;5136479;27;20468;-66
2021/05/02 08:00:56;;;;;;;1.55;0.40;;;13.20;66.00;;;;;;5137248;27;20102;-67
2021/05/02 08:03:22;;;;;;;0.60;0.20;;;13.20;66.60;;;;;;5137373;27;20102;-68
2021/05/02 08:05:48;;;;;;;0.55;0.50;;;13.30;66.20;;;;;;5136049;27;20023;-67
2021/05/02 08:08:15;;;;;;;1.30;0.80;;;13.40;67.00;;;;;;5137256;27;20111;-67
2021/05/02 08:10:40;;;;;;;1.48;0.50;;;13.50;66.80;;;;;;5132253;27;20031;-67
2021/05/02 08:13:06;;;;;;;1.77;0.70;;;13.60;66.30;;;;;;5135298;27;20016;-68
2021/05/02 08:15:32;;;;;;;1.83;0.75;;;13.70;65.30;;;;;;5135403;27;20023;-66
2021/05/02 08:17:58;;;;;;;0.70;0.43;;;13.70;64.10;;;;;;5137052;27;20020;-67
2021/05/02 08:20:25;;;;;;;0.73;0.50;;;13.70;62.20;;;;;;5119409;27;20103;-70
2021/05/02 08:22:51;;;;;;;0.63;0.50;;;13.70;61.80;;;;;;5134047;27;20087;-67
2021/05/02 08:25:17;;;;;;;0.50;0.50;;;13.80;62.30;;;;;;5137083;27;20038;-69
2021/05/02 08:27:43;;;;;;;0.52;0.40;;;13.80;62.60;;;;;;5136377;27;20031;-72
2021/05/02 08:30:10;;;;;;;1.02;0.60;;;13.90;62.10;;;;;;5136873;27;20019;-71
2021/05/02 08:32:36;;;;;;;1.20;0.70;;;13.90;61.20;;;;;;5135638;27;20384;-71
2021/05/02 08:35:02;;;;;;;0.70;0.57;;;14.00;60.60;;;;;;5133980;27;20033;-70
2021/05/02 08:37:29;;;;;;;0.63;0.40;;;14.00;60.70;;;;;;5136840;27;20472;-70
2021/05/02 08:39:55;;;;;;;0.73;0.30;;;14.00;60.50;;;;;;5135414;27;20467;-71
2021/05/02 08:42:20;;;;;;;0.47;0.40;;;14.00;60.00;;;;;;5135353;27;20102;-72
2021/05/02 08:44:47;;;;;;;0.88;0.50;;;14.00;59.70;;;;;;5131971;27;20107;-71
2021/05/02 08:47:13;;;;;;;4.03;0.50;;;14.00;59.70;;;;;;5133129;27;20054;-71
2021/05/02 08:49:43;;;;;;;0.68;0.40;;;14.10;60.10;;;;;;5126078;27;20016;-71
2021/05/02 08:52:10;;;;;;;7.38;0.50;;;14.10;59.30;;;;;;5120744;27;20111;-70
2021/05/02 08:54:36;;;;;;;1.75;0.40;;;14.20;58.30;;;;;;5114382;28;20068;-71
2021/05/02 08:57:02;;;;;;;1.73;0.50;;;14.30;58.40;;;;;;5130378;27;20027;-72
2021/05/02 08:59:28;;;;;;;0.85;0.63;;;14.30;58.10;;;;;;5134280;27;20107;-71
2021/05/02 09:01:58;;;;;;;0.75;0.55;;;14.30;56.80;;;;;;5134284;27;20113;-69
2021/05/02 09:04:25;;;;;;;0.65;0.45;;;14.30;57.10;;;;;;5124750;27;20071;-70
2021/05/02 09:06:51;;;;;;;0.50;0.50;;;14.40;57.10;;;;;;5135118;27;20023;-70
2021/05/02 09:09:17;;;;;;;1.15;0.50;;;14.30;57.10;;;;;;5127796;27;20098;-71
2021/05/02 09:11:45;;;;;;;0.77;0.45;;;14.40;57.20;;;;;;5114689;28;20473;-71
2021/05/02 09:14:19;;;;;;;0.57;0.57;;;14.50;57.50;;;;;;5126320;27;20422;-71
2021/05/02 09:16:53;;;;;;;0.40;0.25;;;14.50;57.20;;;;;;5136127;27;20025;-71
2021/05/02 09:19:31;;;;;;;1.58;0.88;;;14.50;57.60;;;;;;5134607;27;20030;-72
2021/05/02 09:22:12;;;;;;;0.80;0.70;;;14.60;58.20;;;;;;5122940;27;20023;-70
2021/05/02 09:24:38;;;;;;;1.08;0.68;;;14.70;58.00;;;;;;5129634;27;20024;-72
2021/05/02 09:27:15;;;;;;;1.85;1.20;;;14.80;57.90;;;;;;5131699;27;20023;-70
2021/05/02 09:29:43;;;;;;;1.45;0.60;;;14.80;57.60;;;;;;5131058;27;20019;-71
2021/05/02 09:32:11;;;;;;;2.50;0.50;;;14.80;57.20;;;;;;5125007;27;20094;-70
2021/05/02 09:34:37;;;;;;;0.80;0.50;;;14.80;56.70;;;;;;5125837;27;20024;-72
2021/05/02 09:37:08;;;;;;;0.60;0.60;;;14.80;56.30;;;;;;5130667;27;20038;-71
2021/05/02 09:39:48;;;;;;;0.50;0.43;;;14.80;56.40;;;;;;5135090;27;20031;-72
2021/05/02 09:42:18;;;;;;;0.80;0.60;;;14.80;56.50;;;;;;5121932;27;20426;-71
2021/05/02 09:44:44;;;;;;;5.57;0.95;;;14.90;57.10;;;;;;5130254;27;20528;-71
2021/05/02 09:47:31;;;;;;;0.93;0.70;;;15.00;57.30;;;;;;5118474;27;20107;-69
2021/05/02 09:50:17;;;;;;;1.02;0.82;;;15.00;56.30;;;;;;5131159;27;20543;-70
2021/05/02 09:53:02;;;;;;;1.85;0.65;;;15.00;56.90;;;;;;5129242;27;20047;-68
2021/05/02 09:55:42;;;;;;;1.63;0.60;;;15.10;56.80;;;;;;5133695;27;20058;-67
2021/05/02 09:58:17;;;;;;;1.55;0.47;;;15.10;56.20;;;;;;5131474;27;20031;-72
2021/05/02 10:00:45;;;;;;;2.42;1.15;;;15.10;55.40;;;;;;5122828;27;20032;-72
2021/05/02 10:03:16;;;;;;;1.80;1.30;;;15.10;55.10;;;;;;5128727;27;20091;-71
2021/05/02 10:06:03;;;;;;;1.15;0.80;;;15.00;56.30;;;;;;5134108;27;20049;-74
2021/05/02 10:08:30;;;;;;;1.58;0.55;;;15.00;55.80;;;;;;5121320;27;20062;-71
2021/05/02 10:10:58;;;;;;;0.50;0.50;;;15.00;56.40;;;;;;5133976;27;20027;-72
2021/05/02 10:13:24;;;;;;;1.15;0.38;;;15.00;56.50;;;;;;5122613;27;20023;-75
2021/05/02 10:15:50;;;;;;;0.80;0.70;;;15.00;56.40;;;;;;5123284;27;20387;-69
2021/05/02 10:18:16;;;;;;;0.98;0.65;;;14.90;56.80;;;;;;5118628;27;20031;-69
2021/05/02 10:20:46;;;;;;;0.60;0.50;;;14.90;56.80;;;;;;5130886;27;20080;-69
2021/05/02 10:23:13;;;;;;;0.32;0.32;;;14.90;56.90;;;;;;5132179;27;20528;-69
2021/05/02 10:25:41;;;;;;;1.40;0.43;;;14.90;56.80;;;;;;5133919;27;20031;-69
2021/05/02 10:28:08;;;;;;;0.75;0.50;;;14.90;55.90;;;;;;5128261;27;20027;-69
2021/05/02 10:30:43;;;;;;;0.75;0.45;;;14.80;55.40;;;;;;5131129;27;20532;-69
2021/05/02 10:33:11;;;;;;;0.88;0.70;;;14.80;55.60;;;;;;5134032;27;20050;-69
2021/05/02 10:35:51;;;;;;;0.80;0.60;;;14.90;56.20;;;;;;5114915;27;20076;-69
2021/05/02 10:38:20;;;;;;;1.30;1.00;;;14.80;55.30;;;;;;5113863;28;20066;-69
2021/05/02 10:40:47;;;;;;;0.63;0.57;;;14.80;55.10;;;;;;5113660;27;20023;-69
2021/05/02 10:43:30;;;;;;;0.60;0.60;;;14.70;55.10;;;;;;5125396;27;20038;-66
2021/05/02 10:45:56;;;;;;;2.03;0.98;;;14.60;54.00;;;;;;5121187;27;20031;-69
2021/05/02 10:48:22;;;;;;;0.52;0.52;;;14.60;55.10;;;;;;5131374;27;20063;-69
2021/05/02 10:50:51;;;;;;;1.00;0.90;;;14.70;55.20;;;;;;5125383;27;20051;-69
2021/05/02 10:53:25;;;;;;;0.55;0.52;;;14.60;55.10;;;;;;5125623;27;20453;-68
2021/05/02 10:55:58;;;;;;;0.82;0.80;;;14.60;54.80;;;;;;5118355;27;20019;-68
2021/05/02 10:58:29;;;;;;;0.85;0.70;;;14.60;55.50;;;;;;5122338;27;20026;-68
2021/05/02 11:01:03;;;;;;;0.40;0.40;;;14.60;56.00;;;;;;5117259;27;20065;-68
2021/05/02 11:03:41;;;;;;;;;;;14.60;55.60;;;;;;5123659;27;20038;-65
2021/05/02 11:06:12;;;;;;;0.88;0.80;;;14.60;56.40;;;;;;5114273;28;19908;-68
2021/05/02 11:08:51;;;;;;;0.93;0.70;;;14.70;57.00;;;;;;5111917;28;20114;-68
2021/05/02 11:11:46;;;;;;;1.15;0.70;;;14.90;57.80;;;;;;5123112;27;20028;-67
2021/05/02 11:14:13;;;;;;;1.65;1.00;;;15.10;57.80;;;;;;5128317;27;20045;-67
2021/05/02 11:17:00;;;;;;;1.73;0.80;;;15.40;55.70;;;;;;5122130;27;20389;-67
2021/05/02 11:19:32;;;;;;;1.23;0.98;;;15.70;56.50;;;;;;5142358;27;20476;-67
2021/05/02 11:22:01;;;;;;;1.20;1.10;;;16.00;57.70;;;;;;5133486;27;20113;-67
2021/05/02 11:24:51;;;;;;;1.23;0.95;;;16.30;55.60;;;;;;5132403;27;20030;-67
2021/05/02 11:27:26;;;;;;;1.70;1.40;;;16.50;54.70;;;;;;5127336;28;20043;-67
2021/05/02 11:30:05;;;;;;;1.83;1.20;;;16.50;53.00;;;;;;5128147;27;20020;-66
2021/05/02 11:32:43;;;;;;;3.72;1.25;;;16.60;52.00;;;;;;5119110;28;20409;-67
2021/05/02 11:35:15;;;;;;;1.75;1.33;;;16.60;52.10;;;;;;5131520;27;20038;-67
2021/05/02 11:37:54;;;;;;;2.17;1.80;;;16.50;52.00;;;;;;5130512;27;20026;-67
2021/05/02 11:40:31;;;;;;;2.42;1.20;;;16.40;52.30;;;;;;5120182;28;20054;-67
2021/05/02 11:43:08;;;;;;;1.88;1.40;;;16.40;52.50;;;;;;5123497;27;20354;-66
2021/05/02 11:45:52;;;;;;;1.30;1.17;;;16.30;52.40;;;;;;5127470;27;20101;-67
2021/05/02 11:48:29;;;;;;;3.50;1.50;;;16.20;53.30;;;;;;5130318;27;20028;-67
2021/05/02 11:51:03;;;;;;;5.07;1.20;;;16.10;52.90;;;;;;5128791;27;20019;-67
2021/05/02 11:53:34;;;;;;;;;;;16.10;52.40;;;;;;5133740;27;20040;-67
2021/05/02 11:56:01;;;;;;;1.70;1.60;;;16.00;53.60;;;;;;5131843;27;19913;-67
2021/05/02 11:58:28;;;;;;;3.13;2.33;;;16.00;53.10;;;;;;5133183;27;20033;-67
2021/05/02 12:00:54;;;;;;;3.60;2.30;;;15.80;53.20;;;;;;5130544;27;20031;-67
2021/05/02 12:03:38;;;;;;;3.00;2.40;;;15.70;53.30;;;;;;5133052;27;20500;-67
2021/05/02 12:06:05;;;;;;;2.33;1.88;;;15.50;52.90;;;;;;5131253;27;20030;-67
2021/05/02 12:08:32;;;;;;;3.00;2.15;;;15.30;53.20;;;;;;5133058;27;20034;-67
2021/05/02 12:11:04;;;;;;;5.93;3.65;;;15.10;53.60;;;;;;5128331;27;20475;-67
2021/05/02 12:13:48;;;;;;;6.22;3.20;;;14.90;53.60;;;;;;5133021;27;20055;-67
2021/05/02 12:16:19;;;;;;;3.20;2.47;;;14.70;54.30;;;;;;5134718;27;20072;-68
2021/05/02 12:18:52;;;;;;;3.67;2.85;;;14.70;54.80;;;;;;5136972;27;20147;-68
2021/05/02 12:21:32;;;;;;;2.85;2.03;;;14.60;54.90;;;;;;5136959;27;20027;-67
2021/05/02 12:24:14;;;;;;;4.93;3.67;;;14.50;55.40;;;;;;5120864;27;20031;-67
2021/05/02 12:27:11;;;;;;;6.10;3.50;;;14.40;55.40;;;;;;5128215;27;20068;-68
2021/05/02 12:29:38;;;;;;;3.95;3.08;;;14.40;56.00;;;;;;5126729;27;20369;-68
2021/05/02 12:32:07;;;;;;;2.60;2.15;;;14.40;56.00;;;;;;5125220;27;20030;-68
2021/05/02 12:34:34;;;;;;;3.65;2.45;;;14.40;55.80;;;;;;5134386;27;20019;-67
2021/05/02 12:37:17;;;;;;;4.35;2.38;;;14.30;56.10;;;;;;5115921;27;20058;-68
2021/05/02 12:39:45;;;;;;;3.22;2.60;;;14.30;56.20;;;;;;5115904;28;20089;-68
2021/05/02 12:42:11;;;;;;;6.07;2.70;;;14.30;56.40;;;;;;5116247;27;20042;-68
2021/05/02 12:44:38;;;;;;;3.53;2.90;;;14.30;56.60;;;;;;5115720;27;20384;-68
2021/05/02 12:47:18;;;;;;;6.13;3.80;;;14.30;56.90;;;;;;5115881;27;20024;-69
2021/05/02 12:50:02;;;;;;;4.40;2.88;;;14.20;56.70;;;;;;5129802;27;20428;-69
2021/05/02 12:52:33;;;;;;;2.67;2.30;;;14.20;56.70;;;;;;5136202;27;20047;-69
2021/05/02 12:55:21;;;;;;;5.03;3.20;;;14.20;56.50;;;;;;5125890;27;20031;-69
2021/05/02 12:57:52;;;;;;;3.13;2.53;;;14.20;56.70;;;;;;5120254;27;20049;-69